»·PEaware :: N1881Q KHQM-S23

N1881Q :: KHQM-S23

FLIGHT INFORMATION

Flight Status: Arrived
Operator: Privately registered:
United States
More flights under this callsign
Pilot: Matthew M. (27032)
Aircraft: CESSNA 550 CITATION 2/S2/BRAVO
(C550)
More flights by this aircraft type
Origin: KHQM Bowerman
United States
Destination: S23 Ione Mun
United States
More flights between these airports :: More routes between these airports
Route: OLM EPH
File this flight plan on PilotEdge
Remarks:
Altitude:
(Current/Filed)
21,000ft
Speed:
(Current/Filed)
400kts
Departed: 24-Aug-20 10:48 AM
Arrived: 24-Aug-20 11:46 AM
Distance/Time
Traveled:
282nm/0:58
Distance/Time
To Go:
Arrived

Flight Plot

Page will automatically refresh every two minutes.

Flight plan parsing failed; only flown route is shown


Map Options




Map Legend


Flown Route
Filed Route
Departure Airport
Arrival Airport
Navaid (VOR, NDB)
Fix

Horizontal Profiles

Position Reports

Time Latitude Longitude Heading Altitude Ground
Speed
24-Aug-20 10:19 46.973374 -123.930690 170 18ft 0kts
24-Aug-20 10:20 46.973374 -123.930690 170 18ft 0kts
24-Aug-20 10:21 46.973374 -123.930690 170 18ft 0kts
24-Aug-20 10:22 46.973374 -123.930690 170 18ft 0kts
24-Aug-20 10:23 46.973374 -123.930690 170 18ft 0kts
24-Aug-20 10:23 46.973374 -123.930690 170 18ft 0kts
24-Aug-20 10:24 46.973374 -123.930690 170 18ft 0kts
24-Aug-20 10:26 46.973374 -123.930690 170 18ft 0kts
24-Aug-20 10:26 46.973374 -123.930690 170 18ft 0kts
24-Aug-20 10:27 46.973374 -123.930690 170 18ft 0kts
24-Aug-20 10:29 46.973374 -123.930690 170 18ft 0kts
24-Aug-20 10:29 46.973374 -123.930690 170 18ft 0kts
24-Aug-20 10:30 46.973374 -123.930690 170 18ft 0kts
24-Aug-20 10:31 46.973374 -123.930690 170 18ft 0kts
24-Aug-20 10:32 46.973374 -123.930690 170 18ft 0kts
24-Aug-20 10:33 46.973374 -123.930690 170 18ft 0kts
24-Aug-20 10:34 46.973374 -123.930690 170 18ft 0kts
24-Aug-20 10:35 46.973374 -123.930690 170 18ft 0kts
24-Aug-20 10:36 46.973374 -123.930690 170 18ft 0kts
24-Aug-20 10:37 46.973374 -123.930690 170 18ft 0kts
24-Aug-20 10:38 46.973374 -123.930690 170 18ft 0kts
24-Aug-20 10:39 46.973374 -123.930690 170 18ft 0kts
24-Aug-20 10:40 46.973351 -123.930685 171 18ft 2kts
24-Aug-20 10:41 46.973118 -123.929290 81 19ft 4kts
24-Aug-20 10:42 46.973111 -123.927352 125 19ft 0kts
24-Aug-20 10:43 46.973111 -123.927352 125 19ft 0kts
24-Aug-20 10:44 46.973111 -123.927352 125 19ft 0kts
24-Aug-20 10:45 46.973111 -123.927352 125 19ft 0kts
24-Aug-20 10:46 46.972386 -123.927060 241 19ft 9kts
24-Aug-20 10:47 46.968591 -123.961038 262 1199ft 140kts
24-Aug-20 10:48 46.936165 -123.974155 115 3997ft 201kts
24-Aug-20 10:49 46.951008 -123.887692 80 6604ft 234kts
24-Aug-20 10:50 46.953610 -123.789961 86 9352ft 244kts
24-Aug-20 10:51 46.956327 -123.687272 88 11752ft 255kts
24-Aug-20 10:52 46.958796 -123.581125 89 13895ft 266kts
24-Aug-20 10:53 46.961147 -123.471764 89 16022ft 269kts
24-Aug-20 10:54 46.963393 -123.362412 90 18155ft 266kts
24-Aug-20 10:55 46.965492 -123.255922 92 20254ft 256kts
24-Aug-20 10:56 46.967393 -123.144786 92 21069ft 313kts
24-Aug-20 10:57 46.969963 -123.002504 92 21071ft 374kts
24-Aug-20 10:58 46.979479 -122.845098 83 21077ft 397kts
24-Aug-20 10:59 47.000370 -122.683885 81 21072ft 404kts
24-Aug-20 11:00 47.021594 -122.520698 81 21074ft 408kts
24-Aug-20 11:01 47.042715 -122.356555 81 21081ft 410kts
24-Aug-20 11:02 47.063523 -122.191581 83 21074ft 409kts
24-Aug-20 11:03 47.083910 -122.029409 82 21075ft 400kts
24-Aug-20 11:04 47.103802 -121.869182 82 21071ft 396kts
24-Aug-20 11:05 47.123444 -121.709969 82 21068ft 394kts
24-Aug-20 11:06 47.142719 -121.550875 82 21068ft 394kts
24-Aug-20 11:07 47.161759 -121.391719 82 21054ft 394kts
24-Aug-20 11:08 47.180567 -121.232474 83 20968ft 395kts
24-Aug-20 11:09 47.199225 -121.072975 83 20942ft 393kts
24-Aug-20 11:10 47.217477 -120.914421 84 20943ft 393kts
24-Aug-20 11:11 47.235544 -120.755337 84 20944ft 392kts
24-Aug-20 11:12 47.253365 -120.596531 84 20943ft 393kts
24-Aug-20 11:13 47.271046 -120.437024 84 20942ft 393kts
24-Aug-20 11:14 47.288406 -120.278460 84 20926ft 393kts
24-Aug-20 11:15 47.305616 -120.118942 84 20924ft 394kts
24-Aug-20 11:16 47.322736 -119.958028 84 20925ft 399kts
24-Aug-20 11:17 47.339814 -119.795543 84 20926ft 401kts
24-Aug-20 11:18 47.356721 -119.632190 84 20927ft 402kts
24-Aug-20 11:19 47.373572 -119.467818 82 20608ft 413kts
24-Aug-20 11:20 47.438736 -119.334846 43 19111ft 394kts
24-Aug-20 11:21 47.515305 -119.223467 43 17588ft 378kts
24-Aug-20 11:22 47.587943 -119.116803 43 17012ft 368kts
24-Aug-20 11:23 47.662505 -119.006908 44 17019ft 384kts
24-Aug-20 11:24 47.738887 -118.893775 44 16150ft 381kts
24-Aug-20 11:25 47.813116 -118.783412 44 15523ft 377kts
24-Aug-20 11:26 47.888319 -118.670804 44 15538ft 387kts
24-Aug-20 11:27 47.964983 -118.556008 44 15557ft 390kts
24-Aug-20 11:28 48.040587 -118.442083 44 15556ft 384kts
24-Aug-20 11:29 48.113660 -118.331505 45 15413ft 385kts
24-Aug-20 11:30 48.186811 -118.220262 45 13473ft 353kts
24-Aug-20 11:31 48.250361 -118.123300 45 11546ft 323kts
24-Aug-20 11:32 48.313709 -118.026371 46 9633ft 325kts
24-Aug-20 11:33 48.375318 -117.931550 47 7718ft 292kts
24-Aug-20 11:34 48.429916 -117.847053 48 5805ft 274kts
24-Aug-20 11:35 48.482542 -117.765523 48 5054ft 274kts
24-Aug-20 11:36 48.536204 -117.682226 48 5040ft 277kts
24-Aug-20 11:37 48.587073 -117.603268 48 5026ft 238kts
24-Aug-20 11:38 48.633087 -117.531260 48 5023ft 241kts
24-Aug-20 11:39 48.678252 -117.460608 48 5025ft 210kts
24-Aug-20 11:40 48.703454 -117.403216 60 5418ft 107kts
24-Aug-20 11:41 48.733629 -117.394907 14 5027ft 115kts
24-Aug-20 11:42 48.765398 -117.399490 277 4164ft 126kts
24-Aug-20 11:43 48.742456 -117.419545 196 3164ft 89kts
24-Aug-20 11:44 48.717276 -117.416133 166 2276ft 90kts
24-Aug-20 11:45 48.706446 -117.412457 166 2114ft 24kts
24-Aug-20 11:46 48.703576 -117.412110 108 2109ft 0kts
24-Aug-20 11:47 48.703576 -117.412110 108 2109ft 0kts
24-Aug-20 11:48 48.703576 -117.412110 108 2109ft 0kts
24-Aug-20 11:49 48.703576 -117.412110 108 2109ft 0kts
24-Aug-20 11:50 48.703576 -117.412110 108 2109ft 0kts
24-Aug-20 11:51 48.703576 -117.412110 108 2109ft 0kts
24-Aug-20 11:52 48.703576 -117.412110 108 2109ft 0kts

Navigation Log

Ident Type
Flight plan parsing failed, navigation log unavailable